Terminal Aerodrome Forecast
Issued by NWS

Home | Current Version | Previous Version | Graphics & Text | Print | Product List | Glossary On
Versions: 1 2 3 4 5 6 7 8 9 10 11 12 13 14 15 16 17 18 19
000
FTUS43 KMPX 180520
TAFRWF
TAF
KRWF 180520Z 1806/1906 31005KT P6SM SKC
     FM180900 24005KT P6SM BKN100
     FM181000 VRB04KT P6SM -SHRA SCT050 OVC080
     FM181400 17004KT P6SM BKN100
     FM182100 32004KT P6SM SCT030 BKN080 PROB30 1821/1824 -TSRA
      BKN040CB
     FM190200 VRB03KT P6SM SKC=

USA.gov is the U.S. government's official web portal to all federal, state and local government web resources and services.